createdAt,value
2022-08-03T00:00:32.005Z,4.60
2022-08-03T00:01:31.965Z,2.90
2022-08-03T00:02:31.981Z,5.70
2022-08-03T00:03:32.045Z,5.10
2022-08-03T00:04:34.173Z,3.00
2022-08-03T00:05:31.947Z,4.50
2022-08-03T00:06:36.781Z,5.70
2022-08-03T00:07:32.881Z,4.30
2022-08-03T00:08:31.883Z,4.90
2022-08-03T00:09:35.701Z,4.00
2022-08-03T00:10:31.900Z,4.50
2022-08-03T00:11:31.862Z,3.80
2022-08-03T00:12:31.839Z,3.20
2022-08-03T00:13:31.865Z,3.50
2022-08-03T00:14:31.806Z,4.70
2022-08-03T00:15:31.882Z,4.70
2022-08-03T00:16:31.821Z,4.80
2022-08-03T00:17:52.568Z,4.20
2022-08-03T00:18:32.835Z,6.80
2022-08-03T00:19:31.729Z,3.50
2022-08-03T00:20:31.757Z,4.60
2022-08-03T00:21:31.693Z,5.50
2022-08-03T00:22:31.678Z,4.60
2022-08-03T00:23:51.427Z,7.20
2022-08-03T00:24:32.682Z,6.20
2022-08-03T00:25:31.631Z,5.50
2022-08-03T00:26:31.677Z,5.70
2022-08-03T00:27:32.663Z,4.70
2022-08-03T00:28:31.609Z,4.90
2022-08-03T00:29:31.589Z,5.30
2022-08-03T00:30:31.672Z,4.00
2022-08-03T00:31:52.305Z,3.60
2022-08-03T00:32:32.636Z,3.40
2022-08-03T00:33:31.526Z,4.90
2022-08-03T00:34:57.854Z,4.90
2022-08-03T00:35:50.016Z,3.30
2022-08-03T00:36:32.481Z,4.30
2022-08-03T00:37:41.499Z,4.70
2022-08-03T00:38:32.512Z,8.10
2022-08-03T00:39:31.448Z,3.90
2022-08-03T00:40:31.502Z,3.80
2022-08-03T00:41:31.568Z,3.40
2022-08-03T00:42:31.478Z,4.10
2022-08-03T00:43:31.413Z,7.50
2022-08-03T00:44:31.410Z,4.30
2022-08-03T00:45:31.400Z,3.10
2022-08-03T00:46:31.403Z,4.90
2022-08-03T00:47:31.415Z,4.40
2022-08-03T00:48:33.651Z,4.10
2022-08-03T00:49:31.401Z,5.30
2022-08-03T00:50:31.315Z,4.20
2022-08-03T00:51:31.453Z,5.40
2022-08-03T00:52:31.288Z,4.20
2022-08-03T00:53:31.307Z,4.30
2022-08-03T00:54:31.263Z,5.70
2022-08-03T00:55:31.251Z,6.00
2022-08-03T00:56:31.232Z,5.90
2022-08-03T00:57:31.312Z,3.70
2022-08-03T00:58:31.225Z,5.50
2022-08-03T00:59:31.195Z,6.00
2022-08-03T01:00:31.183Z,4.40
2022-08-03T01:01:32.595Z,4.30
2022-08-03T01:02:31.159Z,5.50
2022-08-03T01:03:31.178Z,5.70
2022-08-03T01:04:31.153Z,5.40
2022-08-03T01:05:31.100Z,5.20
2022-08-03T01:06:31.122Z,4.80
2022-08-03T01:07:31.072Z,4.30
2022-08-03T01:08:31.053Z,3.50
2022-08-03T01:09:31.120Z,3.90
2022-08-03T01:10:31.560Z,2.90
2022-08-03T01:11:31.017Z,2.20
2022-08-03T01:12:31.004Z,2.40
2022-08-03T01:14:02.383Z,3.10
2022-08-03T01:14:32.025Z,3.70
2022-08-03T01:15:30.985Z,2.80
2022-08-03T01:16:35.940Z,3.20
2022-08-03T01:17:31.976Z,2.60
2022-08-03T01:18:30.954Z,1.60
2022-08-03T01:19:30.902Z,4.80
2022-08-03T01:20:30.988Z,6.00
2022-08-03T01:21:30.884Z,3.80
2022-08-03T01:22:30.870Z,4.90
2022-08-03T01:23:30.868Z,7.50
2022-08-03T01:24:30.877Z,5.80
2022-08-03T01:25:30.848Z,5.30
2022-08-03T01:26:30.867Z,7.70
2022-08-03T01:27:30.824Z,6.60
2022-08-03T01:28:30.785Z,5.00
2022-08-03T01:29:30.772Z,4.90
2022-08-03T01:30:30.855Z,4.60
2022-08-03T01:31:30.771Z,6.80
2022-08-03T01:32:53.242Z,5.40
2022-08-03T01:33:31.764Z,6.60
2022-08-03T01:34:30.714Z,5.50
2022-08-03T01:35:30.726Z,3.30
2022-08-03T01:36:30.675Z,5.20
2022-08-03T01:37:30.659Z,6.60
2022-08-03T01:38:30.721Z,4.90
2022-08-03T01:39:30.644Z,6.10
2022-08-03T01:40:30.633Z,4.90
2022-08-03T01:41:30.633Z,4.00
2022-08-03T01:42:30.611Z,4.90
2022-08-03T01:44:28.126Z,7.00
2022-08-03T01:44:31.608Z,4.40
2022-08-03T01:45:34.214Z,8.30
2022-08-03T01:46:30.567Z,6.40
2022-08-03T01:47:30.546Z,7.10
2022-08-03T01:48:30.554Z,4.40
2022-08-03T01:49:30.577Z,6.20
2022-08-03T01:50:30.542Z,6.00
2022-08-03T01:52:03.498Z,4.70
2022-08-03T01:52:31.471Z,8.20
2022-08-03T01:53:30.455Z,5.20
2022-08-03T01:54:30.464Z,7.00
2022-08-03T01:55:30.435Z,5.10
2022-08-03T01:56:30.457Z,6.70
2022-08-03T01:57:30.386Z,5.00
2022-08-03T01:58:30.382Z,8.00
2022-08-03T01:59:30.390Z,6.30
2022-08-03T02:00:30.366Z,5.00
2022-08-03T02:02:28.663Z,4.50
2022-08-03T02:02:33.937Z,5.30
2022-08-03T02:03:30.345Z,6.10
2022-08-03T02:04:30.316Z,6.60
2022-08-03T02:05:30.305Z,5.80
2022-08-03T02:07:00.556Z,5.10
2022-08-03T02:07:31.275Z,4.60
2022-08-03T02:08:30.304Z,7.00
2022-08-03T02:09:30.262Z,6.60
2022-08-03T02:10:35.185Z,6.80
2022-08-03T02:11:31.232Z,5.10
2022-08-03T02:12:30.246Z,5.40
2022-08-03T02:13:30.228Z,5.90
2022-08-03T02:14:30.196Z,5.70
2022-08-03T02:15:30.177Z,5.30
2022-08-03T02:16:30.185Z,5.80
2022-08-03T02:17:39.724Z,5.00
2022-08-03T02:18:31.147Z,4.50
2022-08-03T02:19:35.271Z,5.90
2022-08-03T02:20:31.096Z,6.00
2022-08-03T02:21:56.874Z,6.60
2022-08-03T02:22:31.100Z,6.90
2022-08-03T02:23:30.063Z,6.80
2022-08-03T02:24:30.117Z,6.60
2022-08-03T02:25:30.095Z,7.90
2022-08-03T02:26:30.039Z,6.10
2022-08-03T02:27:30.073Z,6.40
2022-08-03T02:28:29.990Z,5.30
2022-08-03T02:29:39.887Z,4.40
2022-08-03T02:30:30.992Z,4.40
2022-08-03T02:31:29.965Z,4.70
2022-08-03T02:32:29.941Z,5.00
2022-08-03T02:33:29.958Z,4.00
2022-08-03T02:34:29.919Z,4.50
2022-08-03T02:35:29.904Z,6.80
2022-08-03T02:36:29.911Z,6.30
2022-08-03T02:37:29.882Z,5.20
2022-08-03T02:38:29.886Z,4.40
2022-08-03T02:39:29.877Z,4.90
2022-08-03T02:40:29.889Z,7.30
2022-08-03T02:41:29.831Z,3.30
2022-08-03T02:42:29.819Z,6.10
2022-08-03T02:43:29.807Z,6.70
2022-08-03T02:44:30.775Z,3.70
2022-08-03T02:45:29.756Z,5.30
2022-08-03T02:46:29.797Z,4.90
2022-08-03T02:47:53.349Z,6.60
2022-08-03T02:48:30.726Z,4.90
2022-08-03T02:49:40.888Z,4.90
2022-08-03T02:50:30.713Z,4.60
2022-08-03T02:51:29.697Z,3.80
2022-08-03T02:52:29.697Z,4.00
2022-08-03T02:53:29.680Z,5.80
2022-08-03T02:54:29.737Z,6.10
2022-08-03T02:55:29.644Z,5.00
2022-08-03T02:56:29.638Z,4.50
2022-08-03T02:57:29.628Z,6.30
2022-08-03T02:58:29.633Z,4.10
2022-08-03T02:59:29.606Z,3.80
2022-08-03T03:00:29.576Z,4.00
2022-08-03T03:01:29.656Z,5.80
2022-08-03T03:02:29.567Z,3.70
2022-08-03T03:03:29.802Z,5.50
2022-08-03T03:04:32.977Z,3.00
2022-08-03T03:05:52.345Z,6.00
2022-08-03T03:06:30.493Z,4.80
2022-08-03T03:07:29.472Z,5.50
2022-08-03T03:08:29.485Z,3.70
2022-08-03T03:09:41.877Z,6.00
2022-08-03T03:10:30.488Z,4.60
2022-08-03T03:11:29.498Z,3.40
2022-08-03T03:12:29.403Z,5.60
2022-08-03T03:13:29.405Z,5.50
2022-08-03T03:14:33.441Z,3.90
2022-08-03T03:15:29.373Z,5.90
2022-08-03T03:16:29.395Z,4.50
2022-08-03T03:17:29.339Z,6.70
2022-08-03T03:18:29.319Z,4.50
2022-08-03T03:19:29.343Z,3.00
2022-08-03T03:20:36.273Z,5.50
2022-08-03T03:21:39.459Z,3.80
2022-08-03T03:22:36.785Z,4.50
2022-08-03T03:23:36.282Z,3.70
2022-08-03T03:24:29.262Z,3.20
2022-08-03T03:25:29.261Z,3.50
2022-08-03T03:26:29.272Z,6.80
2022-08-03T03:27:29.232Z,4.80
2022-08-03T03:28:29.217Z,5.40
2022-08-03T03:29:29.198Z,6.70
2022-08-03T03:30:29.208Z,4.10
2022-08-03T03:31:29.187Z,4.00
2022-08-03T03:32:29.133Z,4.20
2022-08-03T03:33:29.274Z,5.60
2022-08-03T03:34:29.123Z,5.70
2022-08-03T03:35:29.098Z,4.30
2022-08-03T03:36:29.125Z,6.30
2022-08-03T03:37:29.097Z,4.20
2022-08-03T03:38:29.051Z,4.90
2022-08-03T03:39:29.055Z,5.40
2022-08-03T03:40:29.038Z,6.40
2022-08-03T03:41:29.034Z,5.10
2022-08-03T03:42:30.053Z,4.50
2022-08-03T03:43:28.985Z,4.30
2022-08-03T03:44:28.971Z,4.00
2022-08-03T03:45:29.023Z,3.90
2022-08-03T03:46:28.953Z,5.40
2022-08-03T03:47:32.353Z,4.30
2022-08-03T03:48:28.964Z,3.50
2022-08-03T03:49:28.965Z,4.80
2022-08-03T03:50:28.896Z,5.40
2022-08-03T03:51:28.884Z,5.70
2022-08-03T03:52:28.862Z,4.40
2022-08-03T03:53:28.879Z,3.90
2022-08-03T03:54:29.416Z,3.80
2022-08-03T03:55:28.835Z,5.70
2022-08-03T03:56:28.815Z,4.80
2022-08-03T03:57:28.833Z,4.90
2022-08-03T03:58:28.794Z,3.40
2022-08-03T03:59:28.804Z,3.90
2022-08-03T04:00:28.817Z,3.50
2022-08-03T04:01:28.757Z,6.10
2022-08-03T04:02:28.780Z,4.90
2022-08-03T04:03:28.749Z,5.60
2022-08-03T04:04:28.695Z,3.70
2022-08-03T04:05:28.743Z,3.10
2022-08-03T04:06:28.772Z,3.60
2022-08-03T04:07:28.722Z,2.90
2022-08-03T04:08:28.657Z,3.20
2022-08-03T04:09:28.634Z,3.60
2022-08-03T04:10:28.647Z,2.60
2022-08-03T04:11:30.160Z,3.70
2022-08-03T04:12:28.594Z,3.30
2022-08-03T04:13:28.664Z,3.40
2022-08-03T04:14:28.584Z,3.70
2022-08-03T04:15:28.568Z,3.80
2022-08-03T04:16:28.602Z,2.60
2022-08-03T04:17:28.535Z,2.60
2022-08-03T04:18:28.545Z,2.50
2022-08-03T04:19:28.546Z,2.20
2022-08-03T04:20:28.528Z,3.10
2022-08-03T04:21:28.498Z,4.30
2022-08-03T04:22:28.455Z,4.90
2022-08-03T04:23:28.482Z,3.80
2022-08-03T04:24:28.442Z,4.60
2022-08-03T04:25:28.465Z,4.20
2022-08-03T04:26:28.463Z,3.80
2022-08-03T04:27:28.396Z,3.80
2022-08-03T04:28:31.130Z,4.10
2022-08-03T04:29:28.379Z,2.80
2022-08-03T04:30:28.380Z,5.80
2022-08-03T04:31:28.396Z,4.00
2022-08-03T04:32:28.357Z,3.20
2022-08-03T04:33:29.612Z,4.10
2022-08-03T04:34:28.320Z,2.70
2022-08-03T04:35:59.689Z,2.10
2022-08-03T04:36:29.322Z,2.90
2022-08-03T04:37:28.286Z,2.50
2022-08-03T04:38:28.264Z,3.90
2022-08-03T04:39:28.274Z,5.40
2022-08-03T04:40:29.711Z,4.20
2022-08-03T04:41:28.228Z,3.30
2022-08-03T04:42:28.261Z,6.10
2022-08-03T04:43:28.209Z,3.60
2022-08-03T04:44:28.804Z,4.00
2022-08-03T04:45:28.165Z,2.50
2022-08-03T04:46:28.155Z,7.60
2022-08-03T04:47:28.137Z,6.20
2022-08-03T04:48:28.139Z,4.80
2022-08-03T04:49:28.199Z,5.80
2022-08-03T04:50:28.095Z,6.30
2022-08-03T04:51:28.087Z,4.00
2022-08-03T04:52:28.087Z,6.70
2022-08-03T04:53:28.049Z,6.20
2022-08-03T04:54:28.028Z,6.80
2022-08-03T04:55:28.061Z,4.50
2022-08-03T04:56:28.018Z,4.50
2022-08-03T04:57:27.999Z,4.10
2022-08-03T04:58:28.029Z,5.90
2022-08-03T04:59:28.062Z,4.70
2022-08-03T05:00:27.958Z,5.30
2022-08-03T05:01:28.027Z,4.80
2022-08-03T05:02:27.949Z,5.00
2022-08-03T05:03:28.010Z,5.30
2022-08-03T05:04:28.095Z,4.60
2022-08-03T05:05:40.669Z,8.30
2022-08-03T05:06:28.900Z,6.30
2022-08-03T05:07:35.946Z,7.50
2022-08-03T05:08:28.869Z,10.80
2022-08-03T05:09:49.986Z,7.20
2022-08-03T05:10:28.863Z,4.10
2022-08-03T05:11:27.840Z,5.10
2022-08-03T05:12:32.356Z,6.80
2022-08-03T05:13:28.861Z,8.00
2022-08-03T05:14:28.209Z,6.60
2022-08-03T05:15:27.783Z,7.10
2022-08-03T05:16:27.753Z,5.90
2022-08-03T05:17:27.764Z,5.40
2022-08-03T05:18:27.757Z,4.10
2022-08-03T05:19:27.834Z,7.80
2022-08-03T05:20:27.713Z,4.30
2022-08-03T05:21:51.847Z,10.70
2022-08-03T05:22:28.683Z,4.20
2022-08-03T05:23:27.686Z,6.00
2022-08-03T05:24:27.674Z,7.60
2022-08-03T05:25:27.754Z,7.70
2022-08-03T05:26:27.681Z,5.00
2022-08-03T05:27:27.624Z,6.30
2022-08-03T05:28:27.635Z,8.20
2022-08-03T05:29:27.625Z,8.30
2022-08-03T05:30:34.081Z,5.30
2022-08-03T05:31:28.595Z,5.70
2022-08-03T05:32:27.603Z,5.20
2022-08-03T05:33:27.567Z,9.50
2022-08-03T05:34:27.546Z,5.50
2022-08-03T05:35:55.818Z,4.80
2022-08-03T05:36:28.618Z,5.70
2022-08-03T05:37:27.516Z,4.00
2022-08-03T05:38:28.678Z,11.30
2022-08-03T05:39:27.514Z,6.00
2022-08-03T05:40:27.477Z,8.80
2022-08-03T05:41:37.150Z,6.60
2022-08-03T05:42:28.486Z,10.30
2022-08-03T05:43:27.468Z,9.50
2022-08-03T05:44:27.460Z,6.40
2022-08-03T05:45:28.487Z,9.30
2022-08-03T05:46:27.428Z,7.60
2022-08-03T05:47:27.398Z,10.50
2022-08-03T05:48:27.434Z,11.20
2022-08-03T05:49:27.477Z,7.10
2022-08-03T05:50:27.363Z,6.20
2022-08-03T05:51:27.422Z,8.00
2022-08-03T05:52:27.349Z,4.30
2022-08-03T05:53:27.337Z,7.30
2022-08-03T05:54:56.484Z,7.90
2022-08-03T05:55:28.336Z,9.40
2022-08-03T05:56:27.312Z,9.50
2022-08-03T05:57:27.358Z,8.60
2022-08-03T05:58:29.930Z,10.50
2022-08-03T05:59:38.170Z,8.90
2022-08-03T06:00:28.388Z,5.50
2022-08-03T06:01:27.331Z,6.60
2022-08-03T06:02:27.231Z,11.30
2022-08-03T06:03:27.234Z,10.00
2022-08-03T06:04:27.207Z,8.70
2022-08-03T06:05:27.211Z,7.00
2022-08-03T06:06:31.868Z,9.80
2022-08-03T06:07:28.170Z,9.20
2022-08-03T06:08:27.206Z,10.30
2022-08-03T06:10:34.186Z,13.00
2022-08-03T06:10:35.093Z,10.20
2022-08-03T06:11:28.184Z,9.70
2022-08-03T06:12:27.111Z,8.50
2022-08-03T06:13:27.106Z,9.30
2022-08-03T06:14:27.143Z,11.80
2022-08-03T06:15:27.084Z,9.60
2022-08-03T06:16:27.117Z,9.00
2022-08-03T06:17:27.078Z,10.40
2022-08-03T06:18:28.072Z,10.90
2022-08-03T06:19:27.053Z,7.20
2022-08-03T06:20:27.502Z,14.00
2022-08-03T06:21:27.188Z,10.10
2022-08-03T06:22:27.202Z,12.20
2022-08-03T06:23:54.460Z,10.70
2022-08-03T06:24:28.036Z,11.80
2022-08-03T06:25:27.010Z,11.60
2022-08-03T06:26:26.997Z,14.20
2022-08-03T06:27:36.362Z,9.60
2022-08-03T06:28:51.554Z,7.90
2022-08-03T06:29:27.936Z,10.90
2022-08-03T06:30:26.959Z,8.50
2022-08-03T06:31:33.132Z,9.50
2022-08-03T06:32:27.923Z,9.40
2022-08-03T06:34:22.876Z,8.00
2022-08-03T06:34:33.405Z,7.50
2022-08-03T06:35:27.862Z,7.00
2022-08-03T06:36:26.890Z,8.40
2022-08-03T06:37:26.848Z,11.00
2022-08-03T06:38:26.856Z,9.70
2022-08-03T06:39:26.827Z,7.40
2022-08-03T06:40:27.021Z,8.10
2022-08-03T06:41:26.845Z,6.30
2022-08-03T06:42:26.837Z,6.80
2022-08-03T06:43:26.808Z,9.90
2022-08-03T06:44:26.788Z,6.40
2022-08-03T06:45:26.855Z,9.10
2022-08-03T06:46:27.812Z,7.30
2022-08-03T06:47:26.758Z,11.10
2022-08-03T06:48:26.766Z,7.10
2022-08-03T06:49:26.809Z,8.00
2022-08-03T06:50:26.846Z,5.20
2022-08-03T06:52:03.248Z,10.90
2022-08-03T06:52:44.870Z,8.90
2022-08-03T06:53:27.690Z,9.50
2022-08-03T06:54:26.659Z,9.20
2022-08-03T06:55:26.640Z,9.00
2022-08-03T06:56:26.682Z,7.10
2022-08-03T06:57:26.635Z,7.00
2022-08-03T06:58:26.686Z,8.40
2022-08-03T07:00:09.788Z,8.40
2022-08-03T07:00:27.662Z,10.40
2022-08-03T07:01:26.679Z,13.10
2022-08-03T07:02:28.450Z,8.20
2022-08-03T07:03:26.640Z,11.20
2022-08-03T07:04:26.641Z,7.70
2022-08-03T07:05:26.568Z,10.20
2022-08-03T07:06:26.543Z,5.80
2022-08-03T07:07:26.550Z,10.80
2022-08-03T07:08:34.082Z,11.30
2022-08-03T07:09:27.589Z,9.40
2022-08-03T07:10:26.481Z,10.90
2022-08-03T07:11:26.480Z,10.80
2022-08-03T07:12:26.466Z,7.20
2022-08-03T07:13:26.549Z,9.10
2022-08-03T07:14:26.501Z,10.60
2022-08-03T07:15:53.662Z,5.40
2022-08-03T07:16:27.418Z,6.80
2022-08-03T07:17:26.411Z,8.60
2022-08-03T07:18:29.443Z,12.60
2022-08-03T07:19:26.409Z,8.20
2022-08-03T07:20:29.842Z,12.80
2022-08-03T07:21:27.347Z,8.10
2022-08-03T07:22:26.374Z,4.90
2022-08-03T07:23:26.373Z,9.80
2022-08-03T07:24:26.334Z,8.60
2022-08-03T07:25:26.323Z,8.60
2022-08-03T07:26:26.302Z,9.60
2022-08-03T07:27:26.266Z,9.70
2022-08-03T07:28:26.306Z,6.50
2022-08-03T07:29:26.277Z,9.50
2022-08-03T07:30:26.255Z,7.90
2022-08-03T07:31:26.305Z,12.40
2022-08-03T07:32:26.212Z,7.80
2022-08-03T07:33:26.222Z,7.20
2022-08-03T07:34:26.216Z,9.90
2022-08-03T07:35:26.199Z,9.20
2022-08-03T07:36:26.213Z,7.50
2022-08-03T07:37:26.353Z,7.80
2022-08-03T07:38:26.218Z,9.40
2022-08-03T07:39:26.186Z,8.40
2022-08-03T07:40:26.972Z,7.20
2022-08-03T07:41:27.123Z,7.70
2022-08-03T07:42:26.082Z,11.70
2022-08-03T07:43:26.130Z,8.60
2022-08-03T07:44:26.073Z,11.00
2022-08-03T07:45:26.070Z,8.50
2022-08-03T07:46:26.675Z,8.20
2022-08-03T07:47:26.049Z,10.70
2022-08-03T07:48:27.035Z,8.80
2022-08-03T07:49:26.048Z,12.50
2022-08-03T07:50:26.122Z,10.10
2022-08-03T07:51:26.034Z,9.20
2022-08-03T07:52:28.383Z,7.60
2022-08-03T07:53:26.026Z,12.20
2022-08-03T07:54:26.089Z,13.00
2022-08-03T07:55:25.916Z,9.10
2022-08-03T07:56:25.953Z,11.90
2022-08-03T07:57:25.919Z,8.10
2022-08-03T07:58:25.890Z,11.70
2022-08-03T07:59:25.902Z,7.90
2022-08-03T08:00:25.916Z,7.70
2022-08-03T08:01:25.931Z,7.90
2022-08-03T08:02:25.882Z,7.20
2022-08-03T08:03:25.798Z,5.30
2022-08-03T08:04:25.821Z,8.00
2022-08-03T08:05:25.748Z,10.30
2022-08-03T08:06:25.846Z,12.20
2022-08-03T08:07:25.739Z,10.00
2022-08-03T08:08:25.721Z,5.20
2022-08-03T08:09:25.743Z,10.40
2022-08-03T08:10:25.718Z,7.10
2022-08-03T08:11:25.688Z,8.50
2022-08-03T08:12:25.767Z,6.60
2022-08-03T08:13:25.676Z,8.50
2022-08-03T08:14:25.698Z,11.30
2022-08-03T08:15:25.653Z,7.00
2022-08-03T08:16:25.621Z,17.10
2022-08-03T08:17:25.710Z,10.10
2022-08-03T08:18:25.640Z,9.70
2022-08-03T08:19:25.590Z,7.40
2022-08-03T08:20:30.547Z,11.30
2022-08-03T08:21:26.653Z,7.50
2022-08-03T08:22:29.982Z,9.70
2022-08-03T08:23:42.242Z,11.90
2022-08-03T08:24:26.617Z,8.70
2022-08-03T08:25:25.523Z,9.80
2022-08-03T08:26:25.506Z,7.90
2022-08-03T08:27:25.478Z,6.70
2022-08-03T08:28:30.210Z,8.60
2022-08-03T08:29:26.476Z,10.30
2022-08-03T08:30:25.444Z,8.00
2022-08-03T08:31:25.420Z,9.60
2022-08-03T08:32:25.405Z,6.20
2022-08-03T08:33:25.815Z,7.80
2022-08-03T08:34:25.482Z,7.20
2022-08-03T08:35:25.434Z,6.70
2022-08-03T08:36:25.542Z,11.00
2022-08-03T08:37:25.379Z,7.60
2022-08-03T08:38:25.600Z,9.60
2022-08-03T08:39:25.323Z,5.70
2022-08-03T08:40:25.404Z,7.50
2022-08-03T08:41:25.671Z,7.60
2022-08-03T08:42:26.408Z,8.30
2022-08-03T08:43:25.260Z,5.40
2022-08-03T08:44:25.389Z,5.90
2022-08-03T08:45:25.283Z,6.80
2022-08-03T08:46:25.220Z,9.30
2022-08-03T08:47:26.056Z,9.70
2022-08-03T08:48:25.247Z,11.50
2022-08-03T08:49:25.251Z,8.50
2022-08-03T08:50:27.190Z,8.70
2022-08-03T08:51:54.818Z,7.00
2022-08-03T08:52:32.029Z,7.00
2022-08-03T08:53:27.610Z,9.90
2022-08-03T08:54:25.117Z,8.00
2022-08-03T08:55:25.150Z,9.20
2022-08-03T08:56:25.096Z,6.40
2022-08-03T08:57:41.988Z,7.80
2022-08-03T08:58:26.095Z,8.70
2022-08-03T08:59:25.186Z,5.80
2022-08-03T09:00:25.096Z,5.10
2022-08-03T09:01:25.111Z,6.40
2022-08-03T09:02:25.183Z,3.90
2022-08-03T09:03:30.065Z,8.20
2022-08-03T09:04:26.038Z,8.20
2022-08-03T09:05:41.567Z,5.70
2022-08-03T09:06:26.689Z,10.00
2022-08-03T09:07:25.129Z,5.40
2022-08-03T09:08:24.927Z,5.20
2022-08-03T09:10:11.058Z,3.90
2022-08-03T09:10:25.939Z,3.40
2022-08-03T09:11:53.711Z,3.10
2022-08-03T09:12:42.630Z,4.70
2022-08-03T09:13:25.897Z,4.30
2022-08-03T09:14:33.669Z,6.30
2022-08-03T09:15:25.854Z,4.10
2022-08-03T09:16:24.871Z,6.00
2022-08-03T09:17:24.875Z,5.90
2022-08-03T09:18:24.881Z,3.50
2022-08-03T09:19:25.785Z,3.40
2022-08-03T09:20:24.831Z,2.50
2022-08-03T09:21:31.850Z,3.00
2022-08-03T09:22:25.858Z,3.30
2022-08-03T09:23:51.802Z,4.50
2022-08-03T09:24:40.794Z,3.60
2022-08-03T09:25:25.741Z,4.20
2022-08-03T09:26:24.696Z,6.60
2022-08-03T09:27:26.161Z,3.80
2022-08-03T09:28:53.883Z,4.30
2022-08-03T09:29:25.662Z,4.40
2022-08-03T09:30:33.707Z,5.70
2022-08-03T09:31:25.688Z,2.80
2022-08-03T09:32:24.642Z,4.10
2022-08-03T09:33:24.612Z,2.50
2022-08-03T09:34:25.646Z,3.90
2022-08-03T09:35:51.631Z,3.10
2022-08-03T09:36:25.575Z,2.70
2022-08-03T09:37:26.076Z,2.00
2022-08-03T09:38:25.564Z,1.30
2022-08-03T09:39:41.770Z,2.30
2022-08-03T09:40:25.556Z,2.80
2022-08-03T09:41:24.668Z,3.90
2022-08-03T09:42:24.570Z,1.70
2022-08-03T09:43:24.520Z,3.10
2022-08-03T09:44:26.147Z,2.80
2022-08-03T09:45:24.902Z,3.30
2022-08-03T09:46:24.491Z,1.90
2022-08-03T09:47:28.170Z,2.00
2022-08-03T09:48:24.429Z,2.80
2022-08-03T09:49:24.811Z,1.70
2022-08-03T09:50:24.454Z,1.30
2022-08-03T09:52:28.790Z,2.10
2022-08-03T09:52:37.850Z,1.00
2022-08-03T09:53:25.386Z,2.20
2022-08-03T09:54:24.388Z,1.90
2022-08-03T09:56:33.720Z,1.40
2022-08-03T09:56:36.307Z,1.20
2022-08-03T09:57:25.442Z,1.20
2022-08-03T09:58:24.307Z,3.30
2022-08-03T09:59:24.378Z,1.70
2022-08-03T10:00:24.281Z,1.70
2022-08-03T10:01:25.455Z,3.10
2022-08-03T10:02:24.356Z,2.20
2022-08-03T10:03:24.408Z,1.90
2022-08-03T10:04:24.229Z,1.80
2022-08-03T10:05:24.258Z,1.30
2022-08-03T10:06:29.042Z,1.00
2022-08-03T10:07:25.329Z,1.40
2022-08-03T10:08:24.204Z,2.00
2022-08-03T10:09:24.227Z,1.50
2022-08-03T10:10:30.013Z,0.80
2022-08-03T10:11:25.142Z,1.40
2022-08-03T10:12:24.124Z,3.60
2022-08-03T10:13:24.193Z,1.90
2022-08-03T10:14:24.125Z,1.30
2022-08-03T10:16:23.069Z,2.50
2022-08-03T10:16:25.886Z,1.40
2022-08-03T10:17:24.072Z,1.50
2022-08-03T10:18:24.139Z,1.00
2022-08-03T10:19:24.138Z,1.20
2022-08-03T10:20:24.093Z,1.20
2022-08-03T10:21:24.042Z,1.80
2022-08-03T10:22:23.960Z,2.40
2022-08-03T10:23:23.993Z,3.10
2022-08-03T10:24:23.951Z,1.40
2022-08-03T10:25:24.135Z,1.80
2022-08-03T10:26:25.031Z,1.70
2022-08-03T10:27:23.902Z,2.00
2022-08-03T10:28:23.901Z,2.60
2022-08-03T10:29:23.977Z,1.20
2022-08-03T10:30:26.224Z,1.40
2022-08-03T10:31:23.873Z,2.50
2022-08-03T10:32:23.872Z,0.90
2022-08-03T10:33:50.713Z,1.30
2022-08-03T10:34:24.802Z,2.60
2022-08-03T10:35:23.829Z,1.90
2022-08-03T10:36:23.847Z,3.00
2022-08-03T10:37:23.783Z,3.70
2022-08-03T10:38:23.792Z,3.10
2022-08-03T10:39:23.754Z,2.00
2022-08-03T10:40:47.650Z,1.60
2022-08-03T10:41:24.743Z,3.60
2022-08-03T10:42:23.712Z,1.40
2022-08-03T10:43:23.769Z,0.90
2022-08-03T10:44:23.722Z,2.00
2022-08-03T10:45:24.145Z,2.00
2022-08-03T10:46:23.781Z,1.20
2022-08-03T10:47:23.726Z,1.10
2022-08-03T10:48:23.703Z,1.10
2022-08-03T10:49:34.425Z,4.50
2022-08-03T10:50:24.614Z,1.20
2022-08-03T10:51:23.596Z,1.70
2022-08-03T10:52:32.833Z,1.30
2022-08-03T10:53:24.587Z,3.60
2022-08-03T10:54:23.535Z,1.30
2022-08-03T10:55:23.625Z,1.20
2022-08-03T10:56:49.927Z,1.40
2022-08-03T10:57:24.774Z,1.20
2022-08-03T10:58:30.549Z,2.80
2022-08-03T10:59:28.038Z,1.90
2022-08-03T11:00:23.620Z,1.80
2022-08-03T11:01:23.484Z,3.50
2022-08-03T11:02:24.545Z,2.00
2022-08-03T11:03:23.448Z,1.20
2022-08-03T11:04:23.477Z,2.70
2022-08-03T11:05:23.561Z,2.00
2022-08-03T11:06:23.502Z,1.70
2022-08-03T11:07:23.803Z,3.20
2022-08-03T11:08:23.421Z,1.60
2022-08-03T11:09:23.443Z,2.30
2022-08-03T11:10:23.391Z,2.10
2022-08-03T11:11:23.329Z,1.80
2022-08-03T11:12:30.007Z,4.10
2022-08-03T11:13:24.446Z,2.50
2022-08-03T11:14:23.311Z,2.50
2022-08-03T11:15:23.365Z,5.60
2022-08-03T11:16:23.283Z,4.80
2022-08-03T11:17:23.271Z,1.60
2022-08-03T11:18:23.365Z,1.20
2022-08-03T11:19:23.236Z,4.50
2022-08-03T11:20:23.417Z,3.10
2022-08-03T11:21:25.724Z,1.40
2022-08-03T11:22:24.218Z,1.70
2022-08-03T11:24:04.486Z,1.10
2022-08-03T11:24:24.227Z,1.10
2022-08-03T11:25:53.718Z,3.40
2022-08-03T11:26:24.112Z,2.00
2022-08-03T11:27:23.466Z,1.50
2022-08-03T11:28:23.176Z,1.60
2022-08-03T11:29:23.102Z,1.20
2022-08-03T11:30:27.477Z,3.20
2022-08-03T11:31:48.044Z,2.50
2022-08-03T11:32:24.160Z,1.10
2022-08-03T11:33:23.046Z,1.70
2022-08-03T11:34:23.076Z,3.60
2022-08-03T11:35:23.114Z,2.20
2022-08-03T11:36:32.268Z,3.50
2022-08-03T11:37:27.557Z,1.00
2022-08-03T11:38:24.117Z,1.20
2022-08-03T11:39:22.984Z,2.80
2022-08-03T11:40:23.055Z,1.60
2022-08-03T11:41:23.133Z,2.70
2022-08-03T11:42:22.977Z,1.40
2022-08-03T11:43:24.204Z,2.70
2022-08-03T11:44:22.931Z,1.40
2022-08-03T11:45:22.917Z,2.80
2022-08-03T11:46:29.790Z,1.30
2022-08-03T11:47:24.004Z,2.80
2022-08-03T11:48:22.856Z,1.40
2022-08-03T11:49:23.172Z,2.80
2022-08-03T11:50:24.059Z,2.90
2022-08-03T11:51:23.053Z,1.30
2022-08-03T11:52:26.756Z,2.40
2022-08-03T11:53:23.808Z,1.40
2022-08-03T11:54:22.868Z,1.70
2022-08-03T11:55:23.751Z,2.50
2022-08-03T11:56:22.793Z,1.20
2022-08-03T11:57:22.735Z,1.10
2022-08-03T11:59:15.398Z,1.60
2022-08-03T11:59:23.728Z,1.70
2022-08-03T12:00:22.765Z,2.00
2022-08-03T12:01:23.225Z,2.10
2022-08-03T12:02:22.687Z,2.60
2022-08-03T12:03:22.796Z,2.70
2022-08-03T12:04:22.780Z,2.20
2022-08-03T12:05:22.732Z,1.90
2022-08-03T12:06:22.632Z,2.50
2022-08-03T12:07:24.438Z,1.20
2022-08-03T12:08:23.612Z,1.10
2022-08-03T12:09:22.921Z,1.40
2022-08-03T12:10:22.633Z,1.80
2022-08-03T12:11:22.641Z,4.20
2022-08-03T12:12:22.540Z,2.40
2022-08-03T12:14:44.423Z,3.20
2022-08-03T12:14:48.861Z,2.70
2022-08-03T12:15:23.562Z,2.10
2022-08-03T12:16:22.491Z,1.60
2022-08-03T12:17:22.823Z,2.30
2022-08-03T12:18:22.495Z,3.30
2022-08-03T12:19:22.499Z,1.30
2022-08-03T12:20:31.323Z,1.50
2022-08-03T12:21:23.461Z,2.90
2022-08-03T12:22:22.435Z,3.50
2022-08-03T12:23:22.452Z,2.40
2022-08-03T12:24:22.589Z,1.50
2022-08-03T12:25:39.524Z,1.70
2022-08-03T12:26:23.516Z,2.00
2022-08-03T12:27:22.504Z,2.70
2022-08-03T12:28:36.376Z,0.90
2022-08-03T12:29:23.605Z,2.10
2022-08-03T12:30:22.601Z,3.90
2022-08-03T12:31:22.341Z,4.20
2022-08-03T12:32:22.488Z,1.70
2022-08-03T12:33:22.335Z,2.80
2022-08-03T12:34:22.293Z,1.60
2022-08-03T12:35:22.324Z,2.10
2022-08-03T12:36:22.297Z,1.70
2022-08-03T12:37:29.015Z,1.90
2022-08-03T12:38:23.224Z,1.50
2022-08-03T12:39:22.273Z,1.40
2022-08-03T12:40:26.317Z,1.90
2022-08-03T12:41:23.210Z,1.20
2022-08-03T12:42:22.228Z,1.10
2022-08-03T12:43:22.254Z,3.20
2022-08-03T12:44:22.133Z,4.80
2022-08-03T12:45:22.150Z,1.70
2022-08-03T12:46:22.123Z,2.30
2022-08-03T12:47:22.119Z,4.40
2022-08-03T12:48:22.115Z,1.60
2022-08-03T12:49:22.164Z,2.90
2022-08-03T12:50:22.191Z,1.90
2022-08-03T12:51:22.116Z,4.30
2022-08-03T12:52:22.058Z,2.70
2022-08-03T12:53:22.029Z,2.10
2022-08-03T12:54:24.498Z,2.70
2022-08-03T12:55:22.039Z,1.30
2022-08-03T12:56:22.048Z,1.10
2022-08-03T12:57:22.237Z,1.30
2022-08-03T12:58:22.037Z,1.10
2022-08-03T12:59:22.992Z,1.70
2022-08-03T13:00:29.515Z,3.30
2022-08-03T13:01:22.980Z,1.40
2022-08-03T13:02:23.554Z,2.20
2022-08-03T13:03:39.401Z,1.10
2022-08-03T13:04:22.939Z,2.90
2022-08-03T13:05:21.916Z,2.40
2022-08-03T13:06:21.978Z,3.20
2022-08-03T13:07:22.297Z,1.20
2022-08-03T13:08:21.919Z,2.00
2022-08-03T13:09:21.936Z,3.40
2022-08-03T13:10:21.901Z,1.10
2022-08-03T13:11:21.938Z,2.70
2022-08-03T13:12:22.061Z,1.30
2022-08-03T13:13:22.393Z,1.90
2022-08-03T13:14:23.614Z,2.70
2022-08-03T13:15:21.802Z,2.20
2022-08-03T13:16:21.778Z,2.30